Time;durP1;ratioP1;P1;durP2;ratioP2;P2;SDS_P1;SDS_P2;PMS_P1;PMS_P2;Temp;Humidity;BMP_temperature;BMP_pressure;BME280_temperature;BME280_humidity;BME280_pressure;Samples;Min_cycle;Max_cycle;Signal;HPM_P1;HPM_P2
2023/09/05 00:00:10;;;;;;;47.55;43.33;;;18.70;99.90;;;;;;5029293;28;20053;-64
2023/09/05 00:02:40;;;;;;;45.67;41.75;;;18.70;99.90;;;;;;5025533;28;20064;-63
2023/09/05 00:05:07;;;;;;;46.25;42.25;;;18.70;99.90;;;;;;5034671;28;20433;-63
2023/09/05 00:07:37;;;;;;;46.22;42.30;;;18.90;99.90;;;;;;5038994;28;20056;-63
2023/09/05 00:10:11;;;;;;;46.63;42.53;;;18.90;99.90;;;;;;5027350;28;20052;-64
2023/09/05 00:12:40;;;;;;;44.58;40.47;;;18.90;99.90;;;;;;5027473;28;21107;-64
2023/09/05 00:15:09;;;;;;;44.92;41.05;;;18.70;99.90;;;;;;5030904;28;20096;-64
2023/09/05 00:17:36;;;;;;;46.10;41.97;;;18.90;99.90;;;;;;5033026;28;20124;-63
2023/09/05 00:20:02;;;;;;;44.35;40.55;;;18.90;99.90;;;;;;5033103;28;20077;-63
2023/09/05 00:22:27;;;;;;;42.95;39.28;;;18.80;99.90;;;;;;5029492;28;20147;-64
2023/09/05 00:24:53;;;;;;;42.97;39.28;;;18.80;99.90;;;;;;5033306;28;20414;-63
2023/09/05 00:27:19;;;;;;;41.65;37.72;;;19.10;99.90;;;;;;5030515;28;20484;-64
2023/09/05 00:29:44;;;;;;;39.55;36.15;;;19.00;99.90;;;;;;5032072;28;20037;-63
2023/09/05 00:32:10;;;;;;;40.92;37.20;;;19.20;99.90;;;;;;5031078;28;20042;-63
2023/09/05 00:34:37;;;;;;;39.92;36.55;;;19.00;99.90;;;;;;5026191;28;20480;-63
2023/09/05 00:37:08;;;;;;;39.60;36.22;;;19.20;99.90;;;;;;5031777;28;20029;-63
2023/09/05 00:39:35;;;;;;;40.03;36.72;;;19.60;99.90;;;;;;5031840;28;20037;-64
2023/09/05 00:42:03;;;;;;;41.10;37.58;;;19.00;99.90;;;;;;5029945;28;20075;-64
2023/09/05 00:44:29;;;;;;;40.10;36.80;;;19.10;99.90;;;;;;5029579;28;20037;-64
2023/09/05 00:46:58;;;;;;;43.47;39.47;;;18.90;99.90;;;;;;5032666;28;20445;-63
2023/09/05 00:49:27;;;;;;;44.35;40.33;;;18.80;99.90;;;;;;5033737;28;20041;-63
2023/09/05 00:51:57;;;;;;;42.10;38.40;;;19.00;99.90;;;;;;5034401;28;20033;-65
2023/09/05 00:54:23;;;;;;;44.58;40.67;;;18.70;99.90;;;;;;5034969;28;20029;-65
2023/09/05 00:56:49;;;;;;;45.15;41.10;;;18.70;99.90;;;;;;5032203;28;20048;-65
2023/09/05 00:59:15;;;;;;;44.75;40.85;;;18.50;99.90;;;;;;5032355;28;20033;-64
2023/09/05 01:01:41;;;;;;;45.58;41.60;;;18.30;99.90;;;;;;5031453;28;20059;-65
2023/09/05 01:04:07;;;;;;;45.90;41.90;;;18.20;99.90;;;;;;5032772;28;20037;-65
2023/09/05 01:07:02;;;;;;;46.33;42.15;;;18.60;99.90;;;;;;5031919;28;20033;-65
2023/09/05 01:09:59;;;;;;;48.22;44.03;;;17.90;99.90;;;;;;5038656;28;20033;-65
2023/09/05 01:12:25;;;;;;;50.08;45.58;;;17.90;99.90;;;;;;5030548;28;20033;-65
2023/09/05 01:14:50;;;;;;;51.17;46.72;;;18.00;99.90;;;;;;5038327;28;20156;-65
2023/09/05 01:17:16;;;;;;;51.53;46.92;;;18.00;99.90;;;;;;5026321;28;20040;-65
2023/09/05 01:19:42;;;;;;;51.13;46.72;;;18.10;99.90;;;;;;5029532;28;20045;-64
2023/09/05 01:22:21;;;;;;;50.63;46.03;;;18.20;99.90;;;;;;5031052;28;20513;-64
2023/09/05 01:24:49;;;;;;;49.78;45.35;;;18.10;99.90;;;;;;5030218;28;20116;-64
2023/09/05 01:27:17;;;;;;;49.67;45.45;;;17.90;99.90;;;;;;5032846;28;20483;-64
2023/09/05 01:29:44;;;;;;;46.17;42.00;;;18.30;99.90;;;;;;5032164;28;20041;-64
2023/09/05 01:32:10;;;;;;;44.28;40.17;;;18.60;99.90;;;;;;5027250;28;20037;-64
2023/09/05 01:34:36;;;;;;;43.20;39.53;;;18.50;99.90;;;;;;5032405;28;20037;-64
2023/09/05 01:37:01;;;;;;;40.88;37.33;;;18.70;99.90;;;;;;5031865;28;20063;-64
2023/09/05 01:39:27;;;;;;;38.50;35.20;;;18.50;99.90;;;;;;5032373;28;20045;-64
2023/09/05 01:41:53;;;;;;;38.83;35.42;;;18.50;99.90;;;;;;5031621;28;20048;-64
2023/09/05 01:44:19;;;;;;;37.60;34.13;;;18.70;99.90;;;;;;5025015;28;20084;-64
2023/09/05 01:46:44;;;;;;;38.38;35.10;;;18.60;99.90;;;;;;5031701;28;20037;-64
2023/09/05 01:49:10;;;;;;;37.28;34.22;;;18.80;99.90;;;;;;5031305;28;20384;-65
2023/09/05 01:51:36;;;;;;;37.60;34.42;;;18.70;99.90;;;;;;5030438;28;20037;-64
2023/09/05 01:54:02;;;;;;;37.70;34.30;;;19.00;99.90;;;;;;5027285;28;20558;-65
2023/09/05 01:56:28;;;;;;;37.45;33.95;;;18.90;99.90;;;;;;5031781;28;20250;-65
2023/09/05 01:58:53;;;;;;;36.83;33.53;;;19.00;99.90;;;;;;5030564;28;20458;-65
2023/09/05 02:01:19;;;;;;;39.45;36.03;;;19.00;99.90;;;;;;5031421;28;20053;-61
2023/09/05 02:03:45;;;;;;;38.03;34.65;;;19.00;99.90;;;;;;5026429;28;20049;-62
2023/09/05 02:06:12;;;;;;;36.55;33.45;;;18.90;99.90;;;;;;5013205;28;20107;-61
2023/09/05 02:08:38;;;;;;;34.17;31.30;;;18.90;99.90;;;;;;5036129;28;20041;-62
2023/09/05 02:11:04;;;;;;;36.75;33.65;;;19.20;99.90;;;;;;5031703;28;20590;-62
2023/09/05 02:13:29;;;;;;;37.00;33.78;;;19.10;99.90;;;;;;5029182;28;20095;-62
2023/09/05 02:15:55;;;;;;;36.75;33.47;;;19.20;99.90;;;;;;5031208;28;20087;-61
2023/09/05 02:18:21;;;;;;;36.15;33.05;;;19.00;99.90;;;;;;5023277;28;20451;-61
2023/09/05 02:20:46;;;;;;;38.15;34.85;;;19.20;99.90;;;;;;5031420;28;20377;-61
2023/09/05 02:23:12;;;;;;;35.88;32.83;;;19.00;99.90;;;;;;5020761;28;20042;-61
2023/09/05 02:25:38;;;;;;;36.72;33.63;;;19.10;99.90;;;;;;5030740;28;20456;-60
2023/09/05 02:28:03;;;;;;;37.53;34.42;;;19.30;99.90;;;;;;5021647;28;20513;-61
2023/09/05 02:30:30;;;;;;;38.20;34.90;;;19.30;99.90;;;;;;5037766;28;20076;-61
2023/09/05 02:32:56;;;;;;;38.70;35.17;;;19.20;99.90;;;;;;5029669;28;20037;-61
2023/09/05 02:35:23;;;;;;;38.42;35.15;;;19.40;99.90;;;;;;5030678;28;20527;-61
2023/09/05 02:37:50;;;;;;;38.08;34.72;;;19.30;99.90;;;;;;5022951;28;20041;-61
2023/09/05 02:40:16;;;;;;;38.28;34.55;;;19.10;99.90;;;;;;5030934;28;20403;-61
2023/09/05 02:42:42;;;;;;;37.40;34.20;;;19.30;99.90;;;;;;5025570;28;20034;-61
2023/09/05 02:45:08;;;;;;;36.85;33.70;;;19.40;99.90;;;;;;5027492;28;20506;-62
2023/09/05 02:47:33;;;;;;;37.33;34.20;;;19.10;99.90;;;;;;5024899;28;20186;-62
2023/09/05 02:49:59;;;;;;;37.60;34.40;;;19.10;99.90;;;;;;5030277;28;20551;-62
2023/09/05 02:52:25;;;;;;;36.70;33.60;;;19.20;99.90;;;;;;5030186;28;20076;-62
2023/09/05 02:54:51;;;;;;;36.30;33.08;;;19.20;99.90;;;;;;5030744;28;20044;-61
2023/09/05 02:57:16;;;;;;;36.72;33.25;;;19.30;99.90;;;;;;5028431;28;20041;-62
2023/09/05 02:59:42;;;;;;;36.47;33.42;;;19.40;99.90;;;;;;5029411;28;20282;-61
2023/09/05 03:02:08;;;;;;;37.08;33.67;;;19.40;99.90;;;;;;5029921;28;20049;-61
2023/09/05 03:04:33;;;;;;;36.72;33.50;;;19.40;99.90;;;;;;5030726;28;20098;-61
2023/09/05 03:07:02;;;;;;;37.95;34.55;;;19.30;99.90;;;;;;5032865;28;20041;-61
2023/09/05 03:09:28;;;;;;;35.70;32.80;;;19.40;99.90;;;;;;5029643;28;20037;-61
2023/09/05 03:11:54;;;;;;;36.60;33.58;;;19.40;99.90;;;;;;5030386;28;20523;-63
2023/09/05 03:14:20;;;;;;;36.92;33.63;;;19.40;99.90;;;;;;5028753;28;20064;-63
2023/09/05 03:16:46;;;;;;;36.28;33.17;;;19.40;99.90;;;;;;5029213;28;20033;-63
2023/09/05 03:19:12;;;;;;;37.15;34.05;;;19.30;93.80;;;;;;5024393;28;20050;-63
2023/09/05 03:21:38;;;;;;;35.45;32.35;;;19.50;49.90;;;;;;5024058;28;20046;-63
2023/09/05 03:24:04;;;;;;;35.78;32.65;;;19.40;10.20;;;;;;5028228;28;20049;-62
2023/09/05 03:26:30;;;;;;;36.13;33.13;;;19.50;1.00;;;;;;5026779;28;20037;-63
2023/09/05 03:28:56;;;;;;;34.22;31.08;;;19.40;1.00;;;;;;5029916;28;20442;-63
2023/09/05 03:31:23;;;;;;;36.00;32.90;;;19.30;1.00;;;;;;5030061;28;20051;-63
2023/09/05 03:33:50;;;;;;;34.70;31.77;;;19.40;1.00;;;;;;5029709;28;20034;-63
2023/09/05 03:36:16;;;;;;;35.45;32.45;;;19.50;1.00;;;;;;5029087;28;20064;-63
2023/09/05 03:38:41;;;;;;;36.88;33.58;;;19.20;1.00;;;;;;5025482;28;20139;-63
2023/09/05 03:41:08;;;;;;;37.15;34.00;;;19.70;1.00;;;;;;5029264;28;20417;-63
2023/09/05 03:43:34;;;;;;;38.55;35.25;;;19.30;1.00;;;;;;5024540;28;20045;-63
2023/09/05 03:46:00;;;;;;;38.80;35.20;;;19.30;1.00;;;;;;5027208;28;20050;-63
2023/09/05 03:48:26;;;;;;;38.40;35.15;;;19.10;1.00;;;;;;5030472;28;20164;-63
2023/09/05 03:50:51;;;;;;;38.78;35.08;;;19.00;1.00;;;;;;5025865;28;20495;-63
2023/09/05 03:53:17;;;;;;;38.22;34.72;;;19.10;18.80;;;;;;5029262;28;20419;-63
2023/09/05 03:55:44;;;;;;;40.03;36.42;;;18.90;99.90;;;;;;5028159;28;20041;-63
2023/09/05 03:58:11;;;;;;;41.53;37.67;;;18.80;99.90;;;;;;5029495;28;20506;-62
2023/09/05 04:00:36;;;;;;;39.10;35.58;;;18.90;99.90;;;;;;5026090;28;20053;-63
2023/09/05 04:03:03;;;;;;;40.83;37.13;;;18.70;99.90;;;;;;5022660;28;20128;-63
2023/09/05 04:05:29;;;;;;;41.65;37.58;;;18.90;99.90;;;;;;5030960;28;20124;-63
2023/09/05 04:07:55;;;;;;;40.90;37.30;;;18.90;99.90;;;;;;5032992;28;20037;-63
2023/09/05 04:10:21;;;;;;;41.40;37.60;;;18.70;99.90;;;;;;5036395;28;20499;-63
2023/09/05 04:12:46;;;;;;;43.55;39.75;;;18.50;99.90;;;;;;5025064;28;20470;-63
2023/09/05 04:15:19;;;;;;;41.83;37.95;;;18.90;99.90;;;;;;5028605;28;20048;-63
2023/09/05 04:17:45;;;;;;;41.20;37.70;;;18.80;99.90;;;;;;5029592;28;20048;-63
2023/09/05 04:20:12;;;;;;;42.90;39.10;;;18.60;99.90;;;;;;5032111;28;20446;-63
2023/09/05 04:22:38;;;;;;;42.40;38.70;;;18.70;99.90;;;;;;5023072;28;20105;-63
2023/09/05 04:25:05;;;;;;;42.60;38.70;;;18.80;99.90;;;;;;5027737;28;20069;-63
2023/09/05 04:27:30;;;;;;;40.17;36.63;;;18.60;99.90;;;;;;5024681;28;20527;-63
2023/09/05 04:29:56;;;;;;;39.97;36.45;;;18.40;99.90;;;;;;5029435;28;20128;-63
2023/09/05 04:32:28;;;;;;;40.55;36.95;;;18.30;99.90;;;;;;5029262;28;20124;-63
2023/09/05 04:34:58;;;;;;;41.67;37.97;;;18.40;99.90;;;;;;5019742;28;20041;-63
2023/09/05 04:37:23;;;;;;;43.00;38.90;;;18.30;99.90;;;;;;5025935;28;20128;-63
2023/09/05 04:39:49;;;;;;;43.05;39.20;;;18.60;99.90;;;;;;5035463;28;20128;-62
2023/09/05 04:42:15;;;;;;;44.42;40.70;;;18.30;99.90;;;;;;5028622;28;20049;-63
2023/09/05 04:44:41;;;;;;;46.88;42.80;;;18.60;99.90;;;;;;5027161;28;20033;-64
2023/09/05 04:47:23;;;;;;;47.78;43.50;;;18.70;99.90;;;;;;5024867;28;20452;-63
2023/09/05 04:49:57;;;;;;;48.10;43.17;;;18.40;99.90;;;;;;5026333;28;20087;-63
2023/09/05 04:52:26;;;;;;;45.78;41.67;;;18.50;99.90;;;;;;5024961;28;20041;-63
2023/09/05 04:54:54;;;;;;;44.08;39.97;;;18.70;99.90;;;;;;5021129;28;20046;-63
2023/09/05 04:57:20;;;;;;;44.97;40.97;;;18.70;99.90;;;;;;5028889;28;20045;-63
2023/09/05 04:59:49;;;;;;;46.08;41.88;;;18.50;99.90;;;;;;5030221;28;20095;-63
2023/09/05 05:02:15;;;;;;;47.42;43.17;;;18.50;99.90;;;;;;5034742;28;20136;-63
2023/09/05 05:04:41;;;;;;;48.28;43.85;;;18.50;99.90;;;;;;5030569;28;20033;-63
2023/09/05 05:07:08;;;;;;;48.67;44.03;;;18.30;99.90;;;;;;5027536;28;20037;-63
2023/09/05 05:09:36;;;;;;;48.90;44.30;;;18.30;99.90;;;;;;5037992;28;20041;-62
2023/09/05 05:12:02;;;;;;;50.58;46.08;;;18.20;99.90;;;;;;5027962;28;20144;-63
2023/09/05 05:14:28;;;;;;;52.22;47.35;;;17.80;99.90;;;;;;5030863;28;20124;-63
2023/09/05 05:16:54;;;;;;;52.72;47.60;;;18.10;99.90;;;;;;5032284;28;20041;-62
2023/09/05 05:19:23;;;;;;;54.08;48.88;;;17.80;99.90;;;;;;5034403;28;20108;-63
2023/09/05 05:21:49;;;;;;;53.95;48.75;;;17.80;99.90;;;;;;5025488;28;20037;-63
2023/09/05 05:24:15;;;;;;;54.60;49.60;;;17.90;99.90;;;;;;5026449;28;20029;-63
2023/09/05 05:26:42;;;;;;;54.42;49.45;;;17.90;99.90;;;;;;5031107;28;20419;-63
2023/09/05 05:29:08;;;;;;;52.72;47.92;;;18.00;99.90;;;;;;5039086;28;20041;-63
2023/09/05 05:31:33;;;;;;;53.00;48.05;;;18.30;99.90;;;;;;5029522;28;20041;-64
2023/09/05 05:34:02;;;;;;;51.17;46.47;;;18.00;99.90;;;;;;5030411;28;20037;-64
2023/09/05 05:36:29;;;;;;;52.20;47.40;;;18.00;99.90;;;;;;5030698;28;20046;-63
2023/09/05 05:38:56;;;;;;;52.90;48.00;;;18.00;99.90;;;;;;5032437;28;20033;-63
2023/09/05 05:41:21;;;;;;;52.40;47.65;;;18.40;99.90;;;;;;5034467;28;20115;-62
2023/09/05 05:43:47;;;;;;;49.42;44.80;;;18.10;99.90;;;;;;5025818;28;20053;-63
2023/09/05 05:46:14;;;;;;;50.15;45.75;;;18.20;99.90;;;;;;5024869;28;20109;-63
2023/09/05 05:48:40;;;;;;;50.15;45.15;;;18.60;99.90;;;;;;5033297;28;20034;-63
2023/09/05 05:51:06;;;;;;;45.25;41.05;;;18.70;99.90;;;;;;5032315;28;20052;-63
2023/09/05 05:53:32;;;;;;;44.83;40.95;;;18.80;99.90;;;;;;5037054;28;20034;-63
2023/09/05 05:55:58;;;;;;;44.95;40.65;;;18.90;99.90;;;;;;5026768;28;20131;-63
2023/09/05 05:58:23;;;;;;;47.00;42.15;;;18.70;99.90;;;;;;5031170;28;20546;-63
2023/09/05 06:00:52;;;;;;;44.20;40.10;;;18.90;99.90;;;;;;5030117;28;20054;-63
2023/09/05 06:03:18;;;;;;;42.35;38.38;;;19.20;99.90;;;;;;5029495;28;20040;-63
2023/09/05 06:05:47;;;;;;;42.22;38.47;;;18.90;99.90;;;;;;5030570;28;20069;-63
2023/09/05 06:08:13;;;;;;;43.53;39.25;;;19.00;99.90;;;;;;5032905;28;20037;-62
2023/09/05 06:10:39;;;;;;;46.08;41.60;;;19.40;99.90;;;;;;5027750;28;20057;-63
2023/09/05 06:13:05;;;;;;;42.20;38.50;;;19.50;99.90;;;;;;5024435;28;20080;-64
2023/09/05 06:15:34;;;;;;;43.53;39.30;;;19.40;99.90;;;;;;5022547;28;20037;-63
2023/09/05 06:18:00;;;;;;;41.72;37.97;;;19.40;99.90;;;;;;5022149;28;20045;-63
2023/09/05 06:20:26;;;;;;;42.95;39.25;;;19.50;99.90;;;;;;5021386;28;20095;-63
2023/09/05 06:22:52;;;;;;;39.25;35.95;;;19.40;99.90;;;;;;5026445;28;20439;-63
2023/09/05 06:25:17;;;;;;;40.22;36.38;;;19.50;99.90;;;;;;5024184;28;20047;-63
2023/09/05 06:27:43;;;;;;;39.45;35.72;;;19.80;99.90;;;;;;5022993;28;20557;-63
2023/09/05 06:30:10;;;;;;;38.70;35.13;;;19.90;99.90;;;;;;5023275;28;20482;-63
2023/09/05 06:32:36;;;;;;;40.28;36.50;;;19.80;99.90;;;;;;5027244;28;20045;-63
2023/09/05 06:35:01;;;;;;;37.33;34.13;;;20.10;99.90;;;;;;5025675;28;20092;-62
2023/09/05 06:37:31;;;;;;;37.20;34.03;;;20.00;99.90;;;;;;5030342;28;20091;-62
2023/09/05 06:39:57;;;;;;;34.47;31.58;;;20.10;99.90;;;;;;5025389;28;20049;-61
2023/09/05 06:42:23;;;;;;;35.53;32.47;;;20.40;99.90;;;;;;5030189;28;20037;-61
2023/09/05 06:44:49;;;;;;;35.00;32.05;;;20.30;99.90;;;;;;5030703;28;20464;-61
2023/09/05 06:47:14;;;;;;;36.42;33.28;;;20.50;99.90;;;;;;5030216;28;20112;-62
2023/09/05 06:49:40;;;;;;;33.95;31.15;;;20.30;99.90;;;;;;5028596;28;20471;-62
2023/09/05 06:52:06;;;;;;;33.70;30.80;;;20.40;99.90;;;;;;5030426;28;20140;-62
2023/09/05 06:54:32;;;;;;;34.00;31.17;;;20.50;99.90;;;;;;5030764;28;20038;-61
2023/09/05 06:56:58;;;;;;;35.67;32.42;;;20.60;99.90;;;;;;5029669;28;20037;-62
2023/09/05 06:59:23;;;;;;;35.63;32.63;;;20.70;99.90;;;;;;5028848;28;20124;-59
2023/09/05 07:01:49;;;;;;;35.47;32.38;;;20.60;99.90;;;;;;5028824;28;20041;-59
2023/09/05 07:04:14;;;;;;;37.35;34.15;;;20.70;99.90;;;;;;5030835;28;20103;-61
2023/09/05 07:06:40;;;;;;;35.72;32.63;;;20.70;99.90;;;;;;5026790;28;20068;-59
2023/09/05 07:09:06;;;;;;;36.45;33.15;;;20.80;99.90;;;;;;5026643;28;20116;-60
2023/09/05 07:11:36;;;;;;;36.80;33.50;;;20.80;99.90;;;;;;5026114;28;20384;-59
2023/09/05 07:14:01;;;;;;;37.15;33.95;;;21.10;99.90;;;;;;5028369;28;20045;-59
2023/09/05 07:16:27;;;;;;;33.97;31.17;;;21.00;99.90;;;;;;5029108;28;20450;-59
2023/09/05 07:18:53;;;;;;;35.65;32.60;;;21.00;99.90;;;;;;5028673;28;20045;-60
2023/09/05 07:21:19;;;;;;;35.80;32.80;;;21.20;55.90;;;;;;5028145;28;20081;-59
2023/09/05 07:23:44;;;;;;;34.88;32.00;;;21.20;14.90;;;;;;5025526;28;20068;-60
2023/09/05 07:26:10;;;;;;;34.25;31.02;;;21.50;1.00;;;;;;5030383;28;20495;-60
2023/09/05 07:28:35;;;;;;;33.90;31.00;;;21.30;1.00;;;;;;5028736;28;20061;-59
2023/09/05 07:31:01;;;;;;;34.17;31.23;;;21.50;1.00;;;;;;5027908;28;20099;-59
2023/09/05 07:33:28;;;;;;;34.65;31.80;;;21.60;1.00;;;;;;5029899;28;20038;-61
2023/09/05 07:35:53;;;;;;;35.58;32.55;;;21.80;1.00;;;;;;5028450;28;20060;-60
2023/09/05 07:38:21;;;;;;;31.02;28.42;;;22.00;99.90;;;;;;5029173;28;20562;-59
2023/09/05 07:40:50;;;;;;;28.98;26.67;;;21.90;99.90;;;;;;5009828;28;20043;-60
2023/09/05 07:43:16;;;;;;;29.55;26.95;;;22.10;99.90;;;;;;5026266;28;20059;-59
2023/09/05 07:45:41;;;;;;;28.88;26.30;;;22.60;1.00;;;;;;5029066;28;20029;-59
2023/09/05 07:48:08;;;;;;;27.73;25.52;;;22.90;99.90;;;;;;5027741;28;20042;-59
2023/09/05 07:50:34;;;;;;;22.23;20.20;;;22.60;99.90;;;;;;5027683;28;20111;-60
2023/09/05 07:53:00;;;;;;;23.60;21.33;;;23.30;1.00;;;;;;5028561;28;20037;-61
2023/09/05 07:55:26;;;;;;;20.35;18.65;;;23.70;5.00;;;;;;5029406;28;20030;-60
2023/09/05 07:57:52;;;;;;;17.58;15.98;;;24.40;1.00;;;;;;5023079;28;20043;-60
2023/09/05 08:00:19;;;;;;;18.85;16.90;;;24.60;1.00;;;;;;5028521;28;20542;-60
2023/09/05 08:02:45;;;;;;;17.98;16.50;;;24.90;1.70;;;;;;5027996;28;20041;-60
2023/09/05 08:05:11;;;;;;;19.30;17.67;;;25.30;99.90;;;;;;5024246;28;20099;-59
2023/09/05 08:07:38;;;;;;;16.75;15.40;;;25.50;99.90;;;;;;5026320;28;20034;-60
2023/09/05 08:10:05;;;;;;;18.13;16.63;;;25.70;42.70;;;;;;5026898;28;20506;-62
2023/09/05 08:12:31;;;;;;;17.48;15.98;;;26.00;99.90;;;;;;5027314;28;20052;-62
2023/09/05 08:14:56;;;;;;;18.00;16.50;;;26.10;87.30;;;;;;5025397;28;20472;-61
2023/09/05 08:17:22;;;;;;;15.93;14.63;;;26.50;1.00;;;;;;5025487;28;20037;-62
2023/09/05 08:19:47;;;;;;;15.40;13.95;;;27.00;1.00;;;;;;5028958;28;20037;-63
2023/09/05 08:22:13;;;;;;;13.18;11.88;;;27.10;1.00;;;;;;5022677;28;20072;-63
2023/09/05 08:24:38;;;;;;;18.83;12.40;;;27.40;99.90;;;;;;5025854;28;20499;-62
2023/09/05 08:27:05;;;;;;;17.48;15.82;;;27.60;99.90;;;;;;5031077;28;20037;-62
2023/09/05 08:29:32;;;;;;;12.60;11.40;;;28.00;99.90;;;;;;5031533;28;20466;-62
2023/09/05 08:31:58;;;;;;;19.52;18.13;;;28.30;28.30;;;;;;5033918;28;20384;-62
2023/09/05 08:34:24;;;;;;;20.95;18.95;;;28.20;1.00;;;;;;5031809;28;20052;-62
2023/09/05 08:36:50;;;;;;;22.20;20.55;;;28.20;1.00;;;;;;5031968;28;20120;-62
2023/09/05 08:39:16;;;;;;;19.33;17.83;;;28.10;1.00;;;;;;5032391;28;20128;-61
2023/09/05 08:41:42;;;;;;;25.27;23.17;;;28.20;1.00;;;;;;5032010;28;20479;-62
2023/09/05 08:44:08;;;;;;;27.73;25.48;;;28.60;1.00;;;;;;5031653;28;20037;-62
2023/09/05 08:46:36;;;;;;;29.42;27.02;;;28.40;1.00;;;;;;5031318;28;20045;-63
2023/09/05 08:49:01;;;;;;;21.92;20.15;;;28.70;1.00;;;;;;5030605;28;20103;-62
2023/09/05 08:51:34;;;;;;;27.42;25.10;;;28.90;1.00;;;;;;5026663;28;20046;-63
2023/09/05 08:54:03;;;;;;;36.85;33.65;;;29.50;1.00;;;;;;5028770;28;20040;-64
2023/09/05 08:56:29;;;;;;;5.40;3.60;;;29.70;99.90;;;;;;5031078;28;20041;-64
2023/09/05 08:58:56;;;;;;;5.82;3.75;;;29.80;99.90;;;;;;5029447;28;20087;-64
2023/09/05 09:01:24;;;;;;;7.50;3.90;;;30.00;99.90;;;;;;5033591;28;20092;-64
2023/09/05 09:03:51;;;;;;;7.22;4.13;;;30.20;99.90;;;;;;5028032;28;20025;-64
2023/09/05 09:06:22;;;;;;;8.75;4.15;;;30.40;99.90;;;;;;5032123;28;20041;-62
2023/09/05 09:08:47;;;;;;;10.98;4.20;;;30.40;99.90;;;;;;5031414;28;20049;-62
2023/09/05 09:11:14;;;;;;;6.88;4.20;;;30.20;99.90;;;;;;5027907;28;20057;-63
2023/09/05 09:13:40;;;;;;;9.20;4.07;;;29.90;99.90;;;;;;5034052;28;20037;-63
2023/09/05 09:16:06;;;;;;;7.25;3.85;;;30.00;99.90;;;;;;5032891;28;20041;-63
2023/09/05 09:18:32;;;;;;;5.95;3.70;;;30.30;99.90;;;;;;5031952;28;20038;-63
2023/09/05 09:21:03;;;;;;;9.60;3.45;;;30.50;99.90;;;;;;5031927;28;20041;-63
2023/09/05 09:23:33;;;;;;;7.70;3.83;;;30.60;99.90;;;;;;5032220;28;20038;-63
2023/09/05 09:26:00;;;;;;;5.18;3.53;;;30.50;99.90;;;;;;5031360;28;20045;-64
2023/09/05 09:28:30;;;;;;;7.47;2.97;;;30.50;99.90;;;;;;5029879;28;20130;-63
2023/09/05 09:31:01;;;;;;;6.75;2.97;;;30.70;99.90;;;;;;5031943;28;20064;-64
2023/09/05 09:33:29;;;;;;;6.22;2.55;;;30.90;99.90;;;;;;5032019;28;20041;-64
2023/09/05 09:36:00;;;;;;;5.45;2.65;;;31.20;99.90;;;;;;5024988;28;20131;-63
2023/09/05 09:38:28;;;;;;;5.45;2.60;;;31.60;99.90;;;;;;5020897;28;20049;-63
2023/09/05 09:40:55;;;;;;;6.65;2.72;;;32.00;98.30;;;;;;5031418;28;20042;-64
2023/09/05 09:43:21;;;;;;;3.65;2.80;;;32.10;61.20;;;;;;5029651;28;20038;-65
2023/09/05 09:45:46;;;;;;;4.22;2.83;;;32.00;43.80;;;;;;5030126;28;20040;-65
2023/09/05 09:48:16;;;;;;;6.00;2.58;;;32.10;24.50;;;;;;5028860;28;20064;-64
2023/09/05 09:50:45;;;;;;;6.05;2.53;;;32.40;24.00;;;;;;5025571;28;20041;-65
2023/09/05 09:53:18;;;;;;;7.60;2.78;;;32.60;26.20;;;;;;5032860;28;20440;-65
2023/09/05 09:55:46;;;;;;;4.30;2.60;;;32.60;3.40;;;;;;5032560;28;20041;-65
2023/09/05 09:58:14;;;;;;;4.78;2.58;;;32.50;1.00;;;;;;5027378;28;20412;-65
2023/09/05 10:00:45;;;;;;;3.63;2.80;;;31.90;1.00;;;;;;5028307;28;20057;-65
2023/09/05 10:03:13;;;;;;;4.32;2.60;;;31.90;1.00;;;;;;5025117;28;20048;-65
2023/09/05 10:05:41;;;;;;;4.93;2.80;;;32.00;1.00;;;;;;5032321;28;20510;-65
2023/09/05 10:08:11;;;;;;;3.85;2.63;;;31.70;1.00;;;;;;5027638;28;20037;-65
2023/09/05 10:10:41;;;;;;;3.85;2.60;;;31.50;1.00;;;;;;5030059;28;20491;-66
2023/09/05 10:13:08;;;;;;;2.67;2.20;;;31.70;1.00;;;;;;5025832;28;20038;-65
2023/09/05 10:15:36;;;;;;;4.22;2.70;;;31.30;1.00;;;;;;5028724;28;20408;-66
2023/09/05 10:18:02;;;;;;;3.65;2.50;;;30.90;1.00;;;;;;5031565;28;20044;-65
2023/09/05 10:20:30;;;;;;;4.18;2.70;;;30.70;1.00;;;;;;5030210;28;20048;-65
2023/09/05 10:22:55;;;;;;;3.20;2.50;;;30.60;1.00;;;;;;5026394;28;20047;-63
2023/09/05 10:25:23;;;;;;;3.20;2.50;;;30.30;1.00;;;;;;5031861;28;20390;-65
2023/09/05 10:27:49;;;;;;;4.07;2.50;;;30.30;1.00;;;;;;5031498;28;20037;-65
2023/09/05 10:30:15;;;;;;;6.60;3.00;;;30.20;1.00;;;;;;5029608;28;20451;-63
2023/09/05 10:32:44;;;;;;;6.28;2.70;;;29.90;1.00;;;;;;5030981;28;20104;-62
2023/09/05 10:35:16;;;;;;;4.25;2.80;;;29.90;1.00;;;;;;5030354;28;20099;-63
2023/09/05 10:37:51;;;;;;;3.65;2.58;;;29.80;1.00;;;;;;5028460;28;20033;-63
2023/09/05 10:40:17;;;;;;;4.35;2.70;;;29.90;3.10;;;;;;5030859;28;20040;-63
2023/09/05 10:42:54;;;;;;;3.75;2.85;;;29.70;3.70;;;;;;5030663;28;20100;-63
2023/09/05 10:45:23;;;;;;;4.13;3.00;;;29.60;1.00;;;;;;5028143;28;20123;-63
2023/09/05 10:47:50;;;;;;;3.38;2.83;;;29.70;19.70;;;;;;5030188;28;20045;-62
2023/09/05 10:50:19;;;;;;;5.82;2.80;;;29.80;27.60;;;;;;5030237;28;20497;-63
2023/09/05 10:53:11;;;;;;;6.10;2.55;;;29.90;22.30;;;;;;5028914;28;20041;-63
2023/09/05 10:55:44;;;;;;;3.95;2.80;;;29.90;20.20;;;;;;5029421;28;20037;-63
2023/09/05 10:58:51;;;;;;;5.85;2.88;;;29.90;11.30;;;;;;5030233;28;20049;-62
2023/09/05 11:01:32;;;;;;;3.13;2.55;;;29.70;8.10;;;;;;5023445;28;20125;-63
2023/09/05 11:04:07;;;;;;;4.78;2.72;;;29.70;1.00;;;;;;5026815;28;20041;-62
2023/09/05 11:06:37;;;;;;;4.85;2.72;;;29.90;3.40;;;;;;5024400;28;20145;-62
2023/09/05 11:09:06;;;;;;;3.20;2.40;;;29.70;7.00;;;;;;5028765;28;20118;-62
2023/09/05 11:11:45;;;;;;;5.82;2.70;;;29.70;6.80;;;;;;5027061;28;20041;-63
2023/09/05 11:14:10;;;;;;;4.15;2.63;;;29.70;4.10;;;;;;5029107;28;20048;-62
2023/09/05 11:16:47;;;;;;;3.05;2.75;;;29.70;9.40;;;;;;5026225;28;20041;-62
2023/09/05 11:19:33;;;;;;;3.30;2.67;;;29.70;8.00;;;;;;5027750;28;20053;-62
2023/09/05 11:22:21;;;;;;;4.05;2.35;;;29.70;11.80;;;;;;5021034;28;20049;-63
2023/09/05 11:24:49;;;;;;;4.97;2.60;;;29.70;4.70;;;;;;5027390;28;20045;-62
2023/09/05 11:27:21;;;;;;;4.32;2.30;;;29.60;3.90;;;;;;5028876;28;20049;-62
2023/09/05 11:29:47;;;;;;;4.25;2.58;;;29.60;7.10;;;;;;5027035;28;20059;-63
2023/09/05 11:32:15;;;;;;;3.67;2.20;;;29.60;8.50;;;;;;5029078;28;20041;-62
2023/09/05 11:34:42;;;;;;;3.97;2.33;;;29.70;6.30;;;;;;5027552;28;20041;-62
2023/09/05 11:37:08;;;;;;;3.72;2.50;;;29.80;9.70;;;;;;5028695;28;20128;-63
2023/09/05 11:39:34;;;;;;;5.80;2.55;;;29.80;1.00;;;;;;5028588;28;20136;-64
2023/09/05 11:42:00;;;;;;;5.65;2.30;;;29.90;1.00;;;;;;5026997;28;20041;-63
2023/09/05 11:44:39;;;;;;;2.95;2.10;;;30.00;2.50;;;;;;5026713;28;20032;-64
2023/09/05 11:47:06;;;;;;;3.33;2.10;;;30.10;1.00;;;;;;5029187;28;20128;-64
2023/09/05 11:49:34;;;;;;;4.47;2.50;;;30.00;1.00;;;;;;5031631;28;20521;-64
2023/09/05 11:52:00;;;;;;;2.17;1.98;;;30.10;1.00;;;;;;5028755;28;20519;-64
2023/09/05 11:54:30;;;;;;;2.38;2.03;;;30.10;1.00;;;;;;5031734;28;20037;-63
2023/09/05 11:56:57;;;;;;;5.03;2.28;;;30.20;1.00;;;;;;5028007;28;20053;-63
2023/09/05 11:59:24;;;;;;;4.35;2.22;;;30.20;1.00;;;;;;5025345;28;20049;-64
2023/09/05 12:01:51;;;;;;;5.65;2.55;;;30.30;1.00;;;;;;5025200;28;20041;-64
2023/09/05 12:04:16;;;;;;;2.25;2.00;;;30.50;1.00;;;;;;5029554;28;20400;-64
2023/09/05 12:06:47;;;;;;;2.53;2.00;;;30.30;1.00;;;;;;5032980;28;20131;-66
2023/09/05 12:09:12;;;;;;;2.92;2.30;;;30.30;1.00;;;;;;5031649;28;20034;-63
2023/09/05 12:11:38;;;;;;;8.15;2.40;;;30.30;1.00;;;;;;5030203;28;20091;-64
2023/09/05 12:14:04;;;;;;;7.45;2.13;;;30.30;1.00;;;;;;5028304;28;20866;-63
2023/09/05 12:16:30;;;;;;;4.55;2.10;;;30.20;1.00;;;;;;5033941;28;20033;-64
2023/09/05 12:19:03;;;;;;;3.08;1.95;;;30.10;1.00;;;;;;5029637;28;20095;-66
2023/09/05 12:21:43;;;;;;;7.90;2.30;;;30.10;1.00;;;;;;5028597;28;20411;-65
2023/09/05 12:24:21;;;;;;;2.45;2.00;;;30.10;1.00;;;;;;5024544;28;20040;-64
2023/09/05 12:26:49;;;;;;;2.85;2.03;;;30.10;1.00;;;;;;5027177;28;20172;-66
2023/09/05 12:29:16;;;;;;;8.07;1.95;;;30.20;1.00;;;;;;5023560;28;20042;-65
2023/09/05 12:31:44;;;;;;;2.88;2.25;;;30.10;1.00;;;;;;5028450;28;20120;-63
2023/09/05 12:34:10;;;;;;;4.10;2.35;;;30.20;1.00;;;;;;5028094;28;20415;-64
2023/09/05 12:36:35;;;;;;;2.80;2.05;;;30.10;1.00;;;;;;5029078;28;20041;-64